createdAt,value
2018-07-20T00:01:28.235Z,20.40
2018-07-20T00:03:56.667Z,20.40
2018-07-20T00:06:24.971Z,20.40
2018-07-20T00:08:53.335Z,20.50
2018-07-20T00:11:21.792Z,20.50
2018-07-20T00:13:50.447Z,20.40
2018-07-20T00:16:18.748Z,20.40
2018-07-20T00:18:47.087Z,20.40
2018-07-20T00:21:15.731Z,20.20
2018-07-20T00:23:44.231Z,20.10
2018-07-20T00:26:12.528Z,20.00
2018-07-20T00:28:40.859Z,19.90
2018-07-20T00:31:09.181Z,19.80
2018-07-20T00:33:37.497Z,19.70
2018-07-20T00:36:05.800Z,19.60
2018-07-20T00:38:34.127Z,19.50
2018-07-20T00:41:02.428Z,19.50
2018-07-20T00:43:30.755Z,19.40
2018-07-20T00:45:59.071Z,19.30
2018-07-20T00:48:27.427Z,19.30
2018-07-20T00:50:55.753Z,19.20
2018-07-20T00:53:24.095Z,19.10
2018-07-20T00:55:52.477Z,19.10
2018-07-20T00:58:20.836Z,19.10
2018-07-20T01:00:49.164Z,19.10
2018-07-20T01:03:17.512Z,19.00
2018-07-20T01:05:45.813Z,19.00
2018-07-20T01:08:14.201Z,18.90
2018-07-20T01:10:42.517Z,18.90
2018-07-20T01:13:10.834Z,18.90
2018-07-20T01:15:39.163Z,18.80
2018-07-20T01:18:07.533Z,18.70
2018-07-20T01:20:35.859Z,18.60
2018-07-20T01:23:04.184Z,18.50
2018-07-20T01:25:32.481Z,18.50
2018-07-20T01:28:00.795Z,18.50
2018-07-20T01:30:29.107Z,18.50
2018-07-20T01:32:57.443Z,18.50
2018-07-20T01:35:25.747Z,18.50
2018-07-20T01:37:54.065Z,18.40
2018-07-20T01:40:22.379Z,18.40
2018-07-20T01:42:50.759Z,18.30
2018-07-20T01:45:19.131Z,18.20
2018-07-20T01:47:47.463Z,18.10
2018-07-20T01:50:15.759Z,18.10
2018-07-20T01:52:44.076Z,18.10
2018-07-20T01:55:12.402Z,18.10
2018-07-20T01:57:40.731Z,18.00
2018-07-20T02:00:09.144Z,18.00
2018-07-20T02:02:37.451Z,18.00
2018-07-20T02:05:05.845Z,17.90
2018-07-20T02:07:34.810Z,17.80
2018-07-20T02:10:03.145Z,17.70
2018-07-20T02:12:31.451Z,17.80
2018-07-20T02:14:59.765Z,17.70
2018-07-20T02:17:28.067Z,17.70
2018-07-20T02:19:56.399Z,17.70
2018-07-20T02:22:24.720Z,17.60
2018-07-20T02:24:53.069Z,17.60
2018-07-20T02:27:21.396Z,17.60
2018-07-20T02:29:49.710Z,17.60
2018-07-20T02:32:18.051Z,17.70
2018-07-20T02:34:46.365Z,17.60
2018-07-20T02:37:14.912Z,17.60
2018-07-20T02:39:43.637Z,17.60
2018-07-20T02:42:11.964Z,17.50
2018-07-20T02:44:40.277Z,17.40
2018-07-20T02:47:08.589Z,17.40
2018-07-20T02:49:37.054Z,17.40
2018-07-20T02:52:05.364Z,17.30
2018-07-20T02:54:33.684Z,17.40
2018-07-20T02:57:02.003Z,17.50
2018-07-20T02:59:30.341Z,17.50
2018-07-20T03:01:58.655Z,17.50
2018-07-20T03:04:26.987Z,17.50
2018-07-20T03:06:55.284Z,17.50
2018-07-20T03:09:23.614Z,17.50
2018-07-20T03:11:51.947Z,17.40
2018-07-20T03:14:20.340Z,17.30
2018-07-20T03:16:48.644Z,17.20
2018-07-20T03:19:16.980Z,17.20
2018-07-20T03:21:45.387Z,17.20
2018-07-20T03:24:13.719Z,17.20
2018-07-20T03:26:42.031Z,17.20
2018-07-20T03:29:10.355Z,17.20
2018-07-20T03:31:38.753Z,17.10
2018-07-20T03:34:07.081Z,17.10
2018-07-20T03:36:35.401Z,17.10
2018-07-20T03:39:05.657Z,17.10
2018-07-20T03:41:33.980Z,17.10
2018-07-20T03:44:02.293Z,17.20
2018-07-20T03:46:30.589Z,17.10
2018-07-20T03:48:58.948Z,17.10
2018-07-20T03:51:27.280Z,17.10
2018-07-20T03:53:55.608Z,17.10
2018-07-20T03:56:23.933Z,17.10
2018-07-20T03:58:52.249Z,17.20
2018-07-20T04:01:20.793Z,17.20
2018-07-20T04:03:49.119Z,17.20
2018-07-20T04:06:17.559Z,17.20
2018-07-20T04:08:45.879Z,17.30
2018-07-20T04:11:14.208Z,17.30
2018-07-20T04:13:42.500Z,17.40
2018-07-20T04:16:10.831Z,17.40
2018-07-20T04:18:39.129Z,17.40
2018-07-20T04:21:07.532Z,17.50
2018-07-20T04:23:35.833Z,17.50
2018-07-20T04:26:04.195Z,17.60
2018-07-20T04:28:32.527Z,17.70
2018-07-20T04:31:00.859Z,17.70
2018-07-20T04:33:29.152Z,17.80
2018-07-20T04:35:57.468Z,17.80
2018-07-20T04:38:25.775Z,17.90
2018-07-20T04:40:54.193Z,17.90
2018-07-20T04:43:22.485Z,18.00
2018-07-20T04:45:50.913Z,18.10
2018-07-20T04:48:19.216Z,18.20
2018-07-20T04:50:47.539Z,18.20
2018-07-20T04:53:15.847Z,18.20
2018-07-20T04:55:44.522Z,18.30
2018-07-20T04:58:12.855Z,18.30
2018-07-20T05:00:41.165Z,18.30
2018-07-20T05:03:09.462Z,18.40
2018-07-20T05:05:37.871Z,18.40
2018-07-20T05:08:06.483Z,18.50
2018-07-20T05:10:34.792Z,18.50
2018-07-20T05:13:03.092Z,18.50
2018-07-20T05:15:31.415Z,18.60
2018-07-20T05:17:59.723Z,18.60
2018-07-20T05:20:28.204Z,18.70
2018-07-20T05:22:56.502Z,18.80
2018-07-20T05:25:24.824Z,18.70
2018-07-20T05:27:53.118Z,18.70
2018-07-20T05:30:21.428Z,18.70
2018-07-20T05:32:49.731Z,18.70
2018-07-20T05:35:18.058Z,18.80
2018-07-20T05:37:46.368Z,18.80
2018-07-20T05:40:14.690Z,18.90
2018-07-20T05:42:43.033Z,18.90
2018-07-20T05:45:11.365Z,19.00
2018-07-20T05:47:39.660Z,18.90
2018-07-20T05:50:08.424Z,19.10
2018-07-20T05:52:36.820Z,19.30
2018-07-20T05:55:05.367Z,19.40
2018-07-20T05:57:33.652Z,19.60
2018-07-20T06:00:02.019Z,19.60
2018-07-20T06:02:30.560Z,19.60
2018-07-20T06:04:58.911Z,19.70
2018-07-20T06:07:27.237Z,19.80
2018-07-20T06:09:55.533Z,19.80
2018-07-20T06:12:23.870Z,20.00
2018-07-20T06:14:52.175Z,20.10
2018-07-20T06:17:20.503Z,20.30
2018-07-20T06:19:48.801Z,20.50
2018-07-20T06:22:17.129Z,20.50
2018-07-20T06:24:45.435Z,20.50
2018-07-20T06:27:13.885Z,20.50
2018-07-20T06:29:42.225Z,20.60
2018-07-20T06:32:10.595Z,20.60
2018-07-20T06:34:38.931Z,20.60
2018-07-20T06:37:07.326Z,20.60
2018-07-20T06:39:35.620Z,20.60
2018-07-20T06:42:03.974Z,20.90
2018-07-20T06:44:32.265Z,20.90
2018-07-20T06:47:00.569Z,21.10
2018-07-20T06:49:28.953Z,21.40
2018-07-20T06:51:57.384Z,21.80
2018-07-20T06:54:25.679Z,22.00
2018-07-20T06:56:54.092Z,22.10
2018-07-20T06:59:22.498Z,22.20
2018-07-20T07:01:50.839Z,22.20
2018-07-20T07:04:19.146Z,22.50
2018-07-20T07:06:47.524Z,22.70
2018-07-20T07:09:15.900Z,22.90
2018-07-20T07:11:44.191Z,23.30
2018-07-20T07:14:12.488Z,23.60
2018-07-20T07:16:40.830Z,23.80
2018-07-20T07:19:09.152Z,24.20
2018-07-20T07:21:37.480Z,24.50
2018-07-20T07:24:05.962Z,24.60
2018-07-20T07:26:34.290Z,24.70
2018-07-20T07:29:02.602Z,24.70
2018-07-20T07:31:30.917Z,24.90
2018-07-20T07:33:59.345Z,25.10
2018-07-20T07:36:27.675Z,25.10
2018-07-20T07:38:55.990Z,25.00
2018-07-20T07:41:24.301Z,25.00
2018-07-20T07:43:52.623Z,25.00
2018-07-20T07:46:20.951Z,25.10
2018-07-20T07:51:17.347Z,25.20
2018-07-20T07:53:45.667Z,25.20
2018-07-20T07:56:14.010Z,25.30
2018-07-20T07:58:42.325Z,25.50
2018-07-20T08:01:10.640Z,25.40
2018-07-20T08:03:38.958Z,25.40
2018-07-20T08:06:07.274Z,25.50
2018-07-20T08:08:35.581Z,25.80
2018-07-20T08:11:03.882Z,25.80
2018-07-20T08:13:32.241Z,25.80
2018-07-20T08:16:00.547Z,26.20
2018-07-20T08:18:28.881Z,26.50
2018-07-20T08:20:57.196Z,26.30
2018-07-20T08:23:25.519Z,26.60
2018-07-20T08:25:53.804Z,26.60
2018-07-20T08:28:22.143Z,26.40
2018-07-20T08:30:50.456Z,26.40
2018-07-20T08:33:18.784Z,26.60
2018-07-20T08:35:47.088Z,26.80
2018-07-20T08:38:15.413Z,27.20
2018-07-20T08:40:43.734Z,27.30
2018-07-20T08:43:12.071Z,27.40
2018-07-20T08:45:40.377Z,27.30
2018-07-20T08:48:08.684Z,27.60
2018-07-20T08:50:37.011Z,27.70
2018-07-20T08:53:05.590Z,27.80
2018-07-20T08:55:33.893Z,28.00
2018-07-20T08:58:02.225Z,27.90
2018-07-20T09:00:30.535Z,27.60
2018-07-20T09:02:58.900Z,27.70
2018-07-20T09:05:27.233Z,27.80
2018-07-20T09:07:55.598Z,28.00
2018-07-20T09:10:23.917Z,28.00
2018-07-20T09:12:52.471Z,28.00
2018-07-20T09:15:20.790Z,27.90
2018-07-20T09:17:49.138Z,27.90
2018-07-20T09:20:17.516Z,27.70
2018-07-20T09:22:45.835Z,27.80
2018-07-20T09:25:14.349Z,27.80
2018-07-20T09:27:42.657Z,27.80
2018-07-20T09:30:10.965Z,27.70
2018-07-20T09:32:39.273Z,27.30
2018-07-20T09:35:07.711Z,27.60
2018-07-20T09:37:36.057Z,27.80
2018-07-20T09:40:04.631Z,27.90
2018-07-20T09:42:32.962Z,28.30
2018-07-20T09:45:01.288Z,28.40
2018-07-20T09:47:29.605Z,28.40
2018-07-20T09:49:57.911Z,28.20
2018-07-20T09:52:26.221Z,28.10
2018-07-20T09:54:54.527Z,28.20
2018-07-20T09:57:22.828Z,28.10
2018-07-20T09:59:51.274Z,28.50
2018-07-20T10:02:19.581Z,28.20
2018-07-20T10:04:48.752Z,28.20
2018-07-20T10:07:17.068Z,28.50
2018-07-20T10:09:45.399Z,28.60
2018-07-20T10:12:13.701Z,28.70
2018-07-20T10:14:42.024Z,28.40
2018-07-20T10:17:10.849Z,28.40
2018-07-20T10:19:39.224Z,28.70
2018-07-20T10:22:07.803Z,28.40
2018-07-20T10:24:36.225Z,28.30
2018-07-20T10:27:04.733Z,28.60
2018-07-20T10:29:33.056Z,28.90
2018-07-20T10:32:01.373Z,28.90
2018-07-20T10:34:29.685Z,29.00
2018-07-20T10:36:58.010Z,28.90
2018-07-20T10:39:26.333Z,29.20
2018-07-20T10:41:54.643Z,29.20
2018-07-20T10:44:22.961Z,29.30
2018-07-20T10:46:51.325Z,29.30
2018-07-20T10:49:19.628Z,29.40
2018-07-20T10:51:47.924Z,29.40
2018-07-20T10:54:16.311Z,29.50
2018-07-20T10:56:44.620Z,29.50
2018-07-20T10:59:12.952Z,29.50
2018-07-20T11:01:41.417Z,29.60
2018-07-20T11:04:09.742Z,29.60
2018-07-20T11:06:38.133Z,29.60
2018-07-20T11:09:07.811Z,29.50
2018-07-20T11:11:36.318Z,29.50
2018-07-20T11:14:04.719Z,29.40
2018-07-20T11:16:33.111Z,29.70
2018-07-20T11:19:01.438Z,30.00
2018-07-20T11:21:29.757Z,29.70
2018-07-20T11:23:58.065Z,29.40
2018-07-20T11:26:26.376Z,29.30
2018-07-20T11:28:54.733Z,29.40
2018-07-20T11:31:23.092Z,29.50
2018-07-20T11:33:51.404Z,29.50
2018-07-20T11:36:19.715Z,29.50
2018-07-20T11:38:48.025Z,29.80
2018-07-20T11:41:16.334Z,30.00
2018-07-20T11:43:44.666Z,30.20
2018-07-20T11:46:12.962Z,30.30
2018-07-20T11:48:41.295Z,30.40
2018-07-20T11:51:09.659Z,30.20
2018-07-20T11:53:37.977Z,30.20
2018-07-20T11:56:06.330Z,30.20
2018-07-20T11:58:34.680Z,30.40
2018-07-20T12:01:03.031Z,30.30
2018-07-20T12:03:31.347Z,30.50
2018-07-20T12:05:59.679Z,30.60
2018-07-20T12:08:27.980Z,30.40
2018-07-20T12:10:56.317Z,30.50
2018-07-20T12:13:24.619Z,30.70
2018-07-20T12:15:52.995Z,30.90
2018-07-20T12:18:21.336Z,31.00
2018-07-20T12:20:49.673Z,30.90
2018-07-20T12:23:17.961Z,30.80
2018-07-20T12:25:46.310Z,30.70
2018-07-20T12:28:14.679Z,30.70
2018-07-20T12:30:43.105Z,30.50
2018-07-20T12:33:11.423Z,30.20
2018-07-20T12:35:39.749Z,30.20
2018-07-20T12:38:08.079Z,30.30
2018-07-20T12:40:36.408Z,30.50
2018-07-20T12:43:04.751Z,30.50
2018-07-20T12:45:33.221Z,30.70
2018-07-20T12:48:01.941Z,30.60
2018-07-20T12:50:30.363Z,30.70
2018-07-20T12:52:58.673Z,30.70
2018-07-20T12:55:27.007Z,30.40
2018-07-20T12:57:55.335Z,30.40
2018-07-20T13:00:23.756Z,30.60
2018-07-20T13:02:52.107Z,30.40
2018-07-20T13:05:20.431Z,30.40
2018-07-20T13:07:48.948Z,30.10
2018-07-20T13:10:17.360Z,30.10
2018-07-20T13:12:45.669Z,30.40
2018-07-20T13:15:14.011Z,30.80
2018-07-20T13:17:42.315Z,30.50
2018-07-20T13:20:10.637Z,30.60
2018-07-20T13:22:38.948Z,30.70
2018-07-20T13:25:07.283Z,31.00
2018-07-20T13:27:35.573Z,31.10
2018-07-20T13:30:05.037Z,31.00
2018-07-20T13:32:33.341Z,31.00
2018-07-20T13:35:01.729Z,30.90
2018-07-20T13:37:30.118Z,30.90
2018-07-20T13:39:58.451Z,30.90
2018-07-20T13:42:26.778Z,30.70
2018-07-20T13:44:55.119Z,30.70
2018-07-20T13:47:23.446Z,30.80
2018-07-20T13:49:51.805Z,30.90
2018-07-20T13:52:20.105Z,31.00
2018-07-20T13:54:48.418Z,31.00
2018-07-20T13:57:16.731Z,30.90
2018-07-20T13:59:45.099Z,31.00
2018-07-20T14:02:13.431Z,31.00
2018-07-20T14:04:41.743Z,31.10
2018-07-20T14:07:10.079Z,31.20
2018-07-20T14:09:38.603Z,31.10
2018-07-20T14:12:06.920Z,31.00
2018-07-20T14:14:35.212Z,31.00
2018-07-20T14:17:03.776Z,31.00
2018-07-20T14:19:32.097Z,30.90
2018-07-20T14:22:00.439Z,30.80
2018-07-20T14:24:28.887Z,30.70
2018-07-20T14:26:57.301Z,30.60
2018-07-20T14:29:25.599Z,30.50
2018-07-20T14:31:54.160Z,30.50
2018-07-20T14:34:22.418Z,30.60
2018-07-20T14:36:50.759Z,30.50
2018-07-20T14:39:19.115Z,30.40
2018-07-20T14:41:47.451Z,30.10
2018-07-20T14:44:15.763Z,30.10
2018-07-20T14:46:44.105Z,30.20
2018-07-20T14:49:12.415Z,30.30
2018-07-20T14:51:40.765Z,30.40
2018-07-20T14:54:09.104Z,30.50
2018-07-20T14:56:37.444Z,30.40
2018-07-20T14:59:05.848Z,30.30
2018-07-20T15:01:34.234Z,30.30
2018-07-20T15:04:02.517Z,30.30
2018-07-20T15:06:30.855Z,30.40
2018-07-20T15:08:59.156Z,30.40
2018-07-20T15:11:27.491Z,30.50
2018-07-20T15:13:55.955Z,30.40
2018-07-20T15:16:24.295Z,30.50
2018-07-20T15:18:52.625Z,30.40
2018-07-20T15:21:20.958Z,30.20
2018-07-20T15:23:49.286Z,30.20
2018-07-20T15:26:17.619Z,30.30
2018-07-20T15:28:46.047Z,30.30
2018-07-20T15:31:14.370Z,30.30
2018-07-20T15:33:42.717Z,30.40
2018-07-20T15:36:11.171Z,30.40
2018-07-20T15:38:39.711Z,30.50
2018-07-20T15:41:08.531Z,30.60
2018-07-20T15:43:37.555Z,30.60
2018-07-20T15:46:06.316Z,30.60
2018-07-20T15:48:34.257Z,30.50
2018-07-20T15:51:02.581Z,30.40
2018-07-20T15:53:37.908Z,30.50
2018-07-20T15:55:59.671Z,30.50
2018-07-20T15:58:28.270Z,30.60
2018-07-20T16:00:57.752Z,30.50
2018-07-20T16:03:26.091Z,30.40
2018-07-20T16:05:54.436Z,30.30
2018-07-20T16:08:22.737Z,30.20
2018-07-20T16:10:51.080Z,30.10
2018-07-20T16:13:19.408Z,30.00
2018-07-20T16:15:47.705Z,30.00
2018-07-20T16:18:16.025Z,30.00
2018-07-20T16:20:44.424Z,30.00
2018-07-20T16:23:12.779Z,30.10
2018-07-20T16:25:41.226Z,30.10
2018-07-20T16:28:09.477Z,30.10
2018-07-20T16:30:37.823Z,30.00
2018-07-20T16:33:06.154Z,30.00
2018-07-20T16:35:34.441Z,29.90
2018-07-20T16:38:02.760Z,29.90
2018-07-20T16:40:31.115Z,29.90
2018-07-20T16:42:59.871Z,29.80
2018-07-20T16:45:28.190Z,29.70
2018-07-20T16:47:56.505Z,29.40
2018-07-20T16:50:24.817Z,29.40
2018-07-20T16:52:53.121Z,29.40
2018-07-20T16:55:21.412Z,29.50
2018-07-20T16:57:49.734Z,29.40
2018-07-20T17:00:18.076Z,29.40
2018-07-20T17:02:46.405Z,29.40
2018-07-20T17:05:14.775Z,29.30
2018-07-20T17:07:43.107Z,29.30
2018-07-20T17:10:11.459Z,29.20
2018-07-20T17:12:39.836Z,29.10
2018-07-20T17:15:08.163Z,29.10
2018-07-20T17:17:36.542Z,29.10
2018-07-20T17:20:04.919Z,29.10
2018-07-20T17:22:33.250Z,29.20
2018-07-20T17:25:01.621Z,29.20
2018-07-20T17:27:29.958Z,29.10
2018-07-20T17:29:58.256Z,29.00
2018-07-20T17:32:26.596Z,29.00
2018-07-20T17:34:54.891Z,29.00
2018-07-20T17:37:23.442Z,28.90
2018-07-20T17:39:51.713Z,29.00
2018-07-20T17:42:20.133Z,28.90
2018-07-20T17:44:48.432Z,28.80
2018-07-20T17:47:16.872Z,28.80
2018-07-20T17:49:45.215Z,28.80
2018-07-20T17:52:13.537Z,28.70
2018-07-20T17:54:41.877Z,28.80
2018-07-20T17:57:10.251Z,28.70
2018-07-20T17:59:38.576Z,28.70
2018-07-20T18:02:07.030Z,28.60
2018-07-20T18:04:35.506Z,28.60
2018-07-20T18:07:03.832Z,28.50
2018-07-20T18:09:32.167Z,28.40
2018-07-20T18:12:00.469Z,28.30
2018-07-20T18:14:28.820Z,28.10
2018-07-20T18:16:57.129Z,28.00
2018-07-20T18:19:25.460Z,28.10
2018-07-20T18:21:53.757Z,27.90
2018-07-20T18:24:22.222Z,27.80
2018-07-20T18:26:50.619Z,27.70
2018-07-20T18:29:18.983Z,27.70
2018-07-20T18:31:47.300Z,27.60
2018-07-20T18:34:15.635Z,27.60
2018-07-20T18:36:43.975Z,27.60
2018-07-20T18:39:12.940Z,27.50
2018-07-20T18:41:41.742Z,27.50
2018-07-20T18:44:10.449Z,27.30
2018-07-20T18:46:38.945Z,27.20
2018-07-20T18:49:07.399Z,27.20
2018-07-20T18:51:35.727Z,27.00
2018-07-20T18:54:04.091Z,27.00
2018-07-20T18:56:32.389Z,26.90
2018-07-20T18:59:00.736Z,27.00
2018-07-20T19:01:29.057Z,27.00
2018-07-20T19:03:57.379Z,26.90
2018-07-20T19:06:25.685Z,26.60
2018-07-20T19:08:54.035Z,26.50
2018-07-20T19:11:22.339Z,26.40
2018-07-20T19:13:51.032Z,26.20
2018-07-20T19:16:19.365Z,26.10
2018-07-20T19:18:47.800Z,26.10
2018-07-20T19:21:16.128Z,26.10
2018-07-20T19:23:44.524Z,26.00
2018-07-20T19:26:12.777Z,26.00
2018-07-20T19:28:41.103Z,25.90
2018-07-20T19:31:09.419Z,25.70
2018-07-20T19:33:37.751Z,25.60
2018-07-20T19:36:06.090Z,25.50
2018-07-20T19:38:34.473Z,25.40
2018-07-20T19:41:02.795Z,25.30
2018-07-20T19:43:31.186Z,25.20
2018-07-20T19:45:59.497Z,25.10
2018-07-20T19:48:27.896Z,25.10
2018-07-20T19:50:56.213Z,25.00
2018-07-20T19:53:24.564Z,24.90
2018-07-20T19:55:52.874Z,24.70
2018-07-20T19:58:21.228Z,24.50
2018-07-20T20:00:49.655Z,24.50
2018-07-20T20:03:17.995Z,24.40
2018-07-20T20:05:49.615Z,24.30
2018-07-20T20:08:17.935Z,24.30
2018-07-20T20:10:46.295Z,24.20
2018-07-20T20:13:14.632Z,24.20
2018-07-20T20:15:43.182Z,24.10
2018-07-20T20:18:11.419Z,24.10
2018-07-20T20:20:39.759Z,24.10
2018-07-20T20:23:08.176Z,24.20
2018-07-20T20:25:36.519Z,24.20
2018-07-20T20:28:04.953Z,24.10
2018-07-20T20:30:33.284Z,24.10
2018-07-20T20:33:01.595Z,24.00
2018-07-20T20:35:29.945Z,23.90
2018-07-20T20:37:58.245Z,23.80
2018-07-20T20:40:26.577Z,23.80
2018-07-20T20:42:54.900Z,24.00
2018-07-20T20:45:23.251Z,23.90
2018-07-20T20:47:51.556Z,23.80
2018-07-20T20:50:19.914Z,23.80
2018-07-20T20:52:48.247Z,23.70
2018-07-20T20:55:16.608Z,23.60
2018-07-20T20:57:44.926Z,23.60
2018-07-20T21:00:13.266Z,23.60
2018-07-20T21:02:41.567Z,23.60
2018-07-20T21:05:09.913Z,23.50
2018-07-20T21:07:38.231Z,23.50
2018-07-20T21:10:06.737Z,23.50
2018-07-20T21:12:35.061Z,23.30
2018-07-20T21:15:03.923Z,23.30
2018-07-20T21:17:32.263Z,23.20
2018-07-20T21:20:00.584Z,23.20
2018-07-20T21:22:28.899Z,23.20
2018-07-20T21:24:57.213Z,23.30
2018-07-20T21:27:25.540Z,23.20
2018-07-20T21:32:21.869Z,23.20
2018-07-20T21:34:50.235Z,23.20
2018-07-20T21:37:18.551Z,23.20
2018-07-20T21:39:46.875Z,23.10
2018-07-20T21:42:15.220Z,23.10
2018-07-20T21:44:43.899Z,23.20
2018-07-20T21:47:12.215Z,23.20
2018-07-20T21:49:40.533Z,23.20
2018-07-20T21:52:08.832Z,23.20
2018-07-20T21:54:37.158Z,23.20
2018-07-20T21:57:05.467Z,23.10
2018-07-20T21:59:33.809Z,23.20
2018-07-20T22:02:02.105Z,23.10
2018-07-20T22:04:30.420Z,23.00
2018-07-20T22:06:58.773Z,22.90
2018-07-20T22:09:27.081Z,22.90
2018-07-20T22:11:55.401Z,22.90
2018-07-20T22:14:23.696Z,22.90
2018-07-20T22:16:52.047Z,22.90
2018-07-20T22:19:20.367Z,22.90
2018-07-20T22:21:48.696Z,22.90
2018-07-20T22:24:17.132Z,22.90
2018-07-20T22:26:45.461Z,22.90
2018-07-20T22:29:13.781Z,22.90
2018-07-20T22:31:42.148Z,22.80
2018-07-20T22:34:10.474Z,22.90
2018-07-20T22:36:38.957Z,22.80
2018-07-20T22:39:10.627Z,22.80
2018-07-20T22:41:38.976Z,22.90
2018-07-20T22:44:07.306Z,22.90
2018-07-20T22:49:03.706Z,22.90
2018-07-20T22:51:32.107Z,22.90
2018-07-20T22:54:00.435Z,22.80
2018-07-20T22:56:28.756Z,22.80
2018-07-20T22:58:57.128Z,22.70
2018-07-20T23:01:25.453Z,22.70
2018-07-20T23:03:53.956Z,22.70
2018-07-20T23:06:22.311Z,22.70
2018-07-20T23:08:50.617Z,22.70
2018-07-20T23:11:18.948Z,22.70
2018-07-20T23:13:47.244Z,22.70
2018-07-20T23:16:15.579Z,22.70
2018-07-20T23:18:43.908Z,22.70
2018-07-20T23:21:12.352Z,22.60
2018-07-20T23:23:40.697Z,22.60
2018-07-20T23:26:09.013Z,22.60
2018-07-20T23:28:37.342Z,22.50
2018-07-20T23:31:05.900Z,22.60
2018-07-20T23:33:34.219Z,22.50
2018-07-20T23:36:02.529Z,22.50
2018-07-20T23:38:30.855Z,22.40
2018-07-20T23:40:59.180Z,22.40
2018-07-20T23:43:27.503Z,22.40
2018-07-20T23:45:55.924Z,22.30
2018-07-20T23:48:24.233Z,22.20
2018-07-20T23:50:52.555Z,22.20
2018-07-20T23:53:20.902Z,22.20
2018-07-20T23:55:49.450Z,22.20
2018-07-20T23:58:17.779Z,22.10
